Agate Bay, California
Current Conditions -  °F | °C
As of 3:50 PM on Friday 24 Oct 2014 (Local Time) from KTRK Reporting Station
Few Clouds Few Clouds  
Wind Chill: 70°   Ceiling: Unl
Heat Index: 70°   Visibility: 10mi
Dew Point: 23°   Wind: 17mph
Humidity: 17%   Direction: 210°SSW
Pressure: 30.07"   Gusts: 23mph
Location:  39.2392°N, 120.102°W
Report Text: KTRK 242250Z 21015G20KT 10SM FEW180 21/M05 A3007 RMK NOSPECI
Loading
Personal Weather Stations






























Interactive Weather Map
Tropical Storm Tracking
New forecast layout! Learn more

10-Day Weather Forecast

Advertisements
Track Severe Weather on mobile